createdAt,value
2019-03-26T00:01:45.681Z,2.95
2019-03-26T00:06:49.253Z,2.33
2019-03-26T00:11:52.808Z,2.72
2019-03-26T00:16:56.390Z,2.52
2019-03-26T00:21:59.982Z,2.45
2019-03-26T00:27:03.514Z,2.40
2019-03-26T00:32:07.096Z,2.27
2019-03-26T00:37:10.676Z,2.62
2019-03-26T00:42:14.229Z,3.92
2019-03-26T00:47:17.804Z,3.55
2019-03-26T00:52:21.341Z,3.55
2019-03-26T00:57:24.886Z,3.40
2019-03-26T01:02:28.505Z,3.02
2019-03-26T01:07:32.087Z,3.17
2019-03-26T01:12:35.742Z,3.00
2019-03-26T01:17:39.306Z,2.77
2019-03-26T01:22:42.880Z,3.22
2019-03-26T01:27:46.427Z,3.75
2019-03-26T01:32:49.997Z,3.30
2019-03-26T01:37:53.563Z,3.33
2019-03-26T01:42:57.371Z,3.33
2019-03-26T01:48:00.894Z,4.15
2019-03-26T01:53:05.288Z,2.92
2019-03-26T01:58:08.798Z,2.37
2019-03-26T02:03:12.376Z,3.10
2019-03-26T02:08:15.901Z,2.53
2019-03-26T02:13:19.491Z,2.87
2019-03-26T02:18:23.019Z,3.20
2019-03-26T02:23:26.594Z,3.08
2019-03-26T02:28:30.154Z,3.17
2019-03-26T02:33:33.754Z,3.33
2019-03-26T02:38:37.307Z,3.08
2019-03-26T02:43:40.878Z,3.65
2019-03-26T02:48:44.482Z,3.30
2019-03-26T02:53:48.012Z,3.25
2019-03-26T02:58:51.611Z,4.12
2019-03-26T03:03:55.160Z,4.53
2019-03-26T03:08:58.738Z,4.75
2019-03-26T03:14:02.270Z,4.22
2019-03-26T03:19:05.836Z,4.65
2019-03-26T03:24:09.367Z,4.30
2019-03-26T03:29:12.974Z,2.80
2019-03-26T03:34:16.725Z,2.42
2019-03-26T03:39:20.471Z,3.37
2019-03-26T03:44:24.030Z,3.22
2019-03-26T03:49:27.600Z,3.20
2019-03-26T03:54:31.137Z,3.55
2019-03-26T03:59:34.697Z,2.52
2019-03-26T04:04:38.258Z,2.85
2019-03-26T04:09:41.853Z,2.60
2019-03-26T04:14:45.404Z,3.00
2019-03-26T04:19:49.107Z,3.22
2019-03-26T04:24:52.608Z,2.95
2019-03-26T04:29:56.190Z,3.40
2019-03-26T04:34:59.735Z,4.00
2019-03-26T04:40:03.317Z,3.98
2019-03-26T04:45:06.844Z,3.47
2019-03-26T04:50:10.453Z,3.15
2019-03-26T04:55:13.980Z,3.05
2019-03-26T05:00:17.549Z,3.23
2019-03-26T05:05:21.082Z,3.17
2019-03-26T05:10:24.680Z,3.33
2019-03-26T05:15:28.226Z,3.75
2019-03-26T05:20:31.811Z,3.50
2019-03-26T05:25:35.376Z,2.62
2019-03-26T05:30:38.932Z,4.08
2019-03-26T05:35:42.498Z,4.20
2019-03-26T05:40:46.050Z,3.50
2019-03-26T05:45:49.672Z,4.10
2019-03-26T05:50:53.225Z,3.83
2019-03-26T05:55:56.816Z,3.67
2019-03-26T06:01:00.404Z,4.83
2019-03-26T06:06:04.924Z,5.03
2019-03-26T06:11:08.510Z,4.50
2019-03-26T06:16:12.085Z,4.97
2019-03-26T06:21:15.644Z,3.30
2019-03-26T06:26:19.272Z,3.50
2019-03-26T06:31:22.816Z,3.45
2019-03-26T06:36:26.358Z,4.00
2019-03-26T06:41:29.935Z,3.80
2019-03-26T06:46:33.523Z,3.95
2019-03-26T06:51:37.048Z,4.22
2019-03-26T06:56:40.650Z,4.17
2019-03-26T07:01:44.186Z,4.70
2019-03-26T07:06:47.789Z,4.67
2019-03-26T07:11:51.318Z,4.70
2019-03-26T07:16:54.863Z,4.43
2019-03-26T07:21:58.435Z,4.35
2019-03-26T07:27:01.977Z,3.47
2019-03-26T07:32:05.580Z,3.62
2019-03-26T07:37:09.158Z,4.28
2019-03-26T07:42:12.700Z,3.67
2019-03-26T07:47:16.284Z,3.60
2019-03-26T07:52:19.856Z,4.08
2019-03-26T07:57:23.459Z,3.40
2019-03-26T08:02:27.014Z,3.37
2019-03-26T08:07:30.580Z,3.33
2019-03-26T08:12:35.174Z,2.30
2019-03-26T08:17:38.737Z,3.17
2019-03-26T08:22:42.289Z,3.50
2019-03-26T08:27:45.816Z,2.67
2019-03-26T08:32:49.396Z,3.77
2019-03-26T08:37:52.953Z,3.83
2019-03-26T08:42:56.557Z,4.05
2019-03-26T08:48:00.116Z,4.60
2019-03-26T08:53:03.721Z,3.47
2019-03-26T08:58:07.246Z,3.80
2019-03-26T09:03:10.818Z,4.20
2019-03-26T09:08:24.812Z,3.40
2019-03-26T09:13:19.676Z,3.47
2019-03-26T09:18:23.209Z,4.05
2019-03-26T09:23:26.794Z,3.70
2019-03-26T09:28:30.351Z,3.55
2019-03-26T09:33:33.930Z,5.05
2019-03-26T09:38:39.255Z,4.25
2019-03-26T09:43:42.804Z,3.90
2019-03-26T09:48:46.359Z,3.85
2019-03-26T09:53:49.895Z,4.33
2019-03-26T09:58:53.505Z,9.83
2019-03-26T10:03:57.033Z,3.30
2019-03-26T10:09:00.606Z,3.70
2019-03-26T10:14:05.214Z,2.90
2019-03-26T10:19:08.762Z,2.72
2019-03-26T10:24:12.343Z,2.80
2019-03-26T10:29:29.565Z,2.47
2019-03-26T10:34:21.228Z,3.10
2019-03-26T10:39:24.753Z,2.65
2019-03-26T10:44:28.341Z,2.87
2019-03-26T10:49:31.850Z,2.90
2019-03-26T10:54:35.411Z,3.45
2019-03-26T10:59:38.934Z,2.90
2019-03-26T11:04:42.500Z,2.58
2019-03-26T11:09:46.098Z,2.50
2019-03-26T11:14:49.628Z,2.80
2019-03-26T11:19:53.233Z,2.50
2019-03-26T11:24:56.758Z,3.75
2019-03-26T11:30:00.406Z,4.53
2019-03-26T11:35:06.032Z,3.67
2019-03-26T11:40:09.561Z,4.28
2019-03-26T11:45:13.129Z,2.52
2019-03-26T11:50:16.682Z,3.20
2019-03-26T11:55:21.829Z,4.67
2019-03-26T12:00:27.289Z,3.40
2019-03-26T12:05:30.849Z,3.98
2019-03-26T12:10:34.444Z,2.70
2019-03-26T12:15:37.997Z,2.50
2019-03-26T12:20:41.570Z,3.40
2019-03-26T12:25:45.117Z,3.42
2019-03-26T12:30:48.691Z,3.20
2019-03-26T12:35:52.287Z,4.60
2019-03-26T12:40:55.817Z,4.70
2019-03-26T12:46:01.821Z,3.30
2019-03-26T12:51:04.822Z,3.27
2019-03-26T12:56:08.375Z,2.92
2019-03-26T13:01:11.954Z,3.00
2019-03-26T13:06:15.570Z,2.37
2019-03-26T13:11:19.133Z,2.90
2019-03-26T13:16:22.718Z,2.30
2019-03-26T13:21:26.286Z,2.35
2019-03-26T13:26:29.818Z,2.40
2019-03-26T13:31:33.370Z,2.60
2019-03-26T13:36:36.976Z,2.40
2019-03-26T13:41:40.500Z,2.50
2019-03-26T13:46:44.075Z,2.10
2019-03-26T13:51:47.655Z,2.55
2019-03-26T13:56:51.194Z,1.98
2019-03-26T14:01:54.747Z,2.30
2019-03-26T14:06:58.312Z,2.20
2019-03-26T14:12:01.882Z,2.22
2019-03-26T14:17:05.829Z,2.05
2019-03-26T14:22:08.576Z,2.40
2019-03-26T14:27:12.155Z,2.58
2019-03-26T14:32:15.714Z,2.40
2019-03-26T14:37:19.295Z,2.72
2019-03-26T14:42:22.879Z,2.58
2019-03-26T14:47:26.463Z,2.20
2019-03-26T14:52:30.017Z,1.77
2019-03-26T14:57:33.605Z,2.37
2019-03-26T15:02:37.228Z,2.58
2019-03-26T15:07:40.902Z,3.37
2019-03-26T15:12:44.459Z,2.22
2019-03-26T15:17:48.079Z,3.50
2019-03-26T15:22:51.697Z,2.67
2019-03-26T15:27:55.255Z,2.40
2019-03-26T15:32:58.941Z,2.65
2019-03-26T15:38:02.557Z,2.55
2019-03-26T15:43:06.097Z,2.55
2019-03-26T15:48:09.660Z,3.27
2019-03-26T15:53:13.746Z,4.67
2019-03-26T15:58:17.347Z,3.80
2019-03-26T16:03:22.370Z,2.80
2019-03-26T16:08:26.422Z,2.62
2019-03-26T16:13:30.040Z,3.50
2019-03-26T16:18:33.831Z,2.62
2019-03-26T16:23:38.065Z,2.45
2019-03-26T16:28:41.952Z,2.65
2019-03-26T16:33:46.035Z,3.08
2019-03-26T16:38:50.341Z,2.72
2019-03-26T16:43:54.170Z,2.60
2019-03-26T16:48:58.153Z,2.60
2019-03-26T16:54:02.160Z,2.77
2019-03-26T16:59:05.971Z,3.02
2019-03-26T17:04:10.035Z,2.30
2019-03-26T17:09:14.321Z,2.40
2019-03-26T17:14:18.483Z,2.40
2019-03-26T17:19:22.281Z,2.30
2019-03-26T17:24:26.542Z,2.52
2019-03-26T17:29:32.634Z,2.60
2019-03-26T17:34:38.572Z,2.25
2019-03-26T17:39:42.720Z,2.77
2019-03-26T17:44:46.362Z,2.60
2019-03-26T17:49:50.584Z,2.55
2019-03-26T17:54:55.029Z,2.58
2019-03-26T17:59:59.464Z,2.72
2019-03-26T18:05:04.144Z,3.75
2019-03-26T18:10:08.196Z,3.00
2019-03-26T18:15:11.961Z,2.57
2019-03-26T18:20:15.517Z,2.40
2019-03-26T18:25:19.202Z,3.02
2019-03-26T18:30:25.237Z,2.50
2019-03-26T18:35:29.105Z,2.60
2019-03-26T18:40:32.669Z,2.17
2019-03-26T18:45:41.472Z,1.90
2019-03-26T18:50:45.081Z,2.30
2019-03-26T18:55:48.703Z,1.85
2019-03-26T19:00:52.258Z,1.80
2019-03-26T19:05:55.835Z,1.95
2019-03-26T19:11:00.222Z,2.02
2019-03-26T19:16:03.845Z,1.87
2019-03-26T19:21:07.418Z,1.77
2019-03-26T19:26:11.039Z,2.02
2019-03-26T19:31:14.536Z,1.90
2019-03-26T19:36:18.130Z,2.00
2019-03-26T19:41:21.796Z,2.17
2019-03-26T19:46:25.410Z,1.75
2019-03-26T19:51:28.963Z,1.85
2019-03-26T19:56:32.525Z,1.60
2019-03-26T20:01:36.108Z,1.85
2019-03-26T20:06:39.656Z,1.92
2019-03-26T20:11:43.207Z,2.12
2019-03-26T20:16:46.789Z,1.98
2019-03-26T20:21:50.404Z,2.37
2019-03-26T20:26:54.058Z,2.10
2019-03-26T20:31:57.779Z,1.87
2019-03-26T20:37:01.393Z,2.10
2019-03-26T20:42:04.932Z,2.10
2019-03-26T20:47:08.638Z,2.08
2019-03-26T20:52:12.168Z,1.80
2019-03-26T20:57:15.779Z,2.35
2019-03-26T21:02:19.351Z,2.30
2019-03-26T21:07:22.943Z,1.80
2019-03-26T21:12:26.485Z,2.40
2019-03-26T21:17:30.174Z,2.13
2019-03-26T21:22:35.730Z,2.15
2019-03-26T21:27:40.138Z,1.85
2019-03-26T21:32:43.777Z,1.87
2019-03-26T21:37:47.370Z,2.33
2019-03-26T21:42:51.122Z,2.62
2019-03-26T21:47:56.017Z,2.30
2019-03-26T21:52:59.630Z,2.02
2019-03-26T21:58:03.892Z,2.40
2019-03-26T22:03:08.923Z,2.45
2019-03-26T22:08:12.499Z,2.30
2019-03-26T22:13:16.078Z,3.00
2019-03-26T22:18:19.612Z,2.35
2019-03-26T22:23:23.183Z,2.58
2019-03-26T22:28:26.789Z,2.50
2019-03-26T22:33:30.335Z,2.60
2019-03-26T22:38:34.272Z,2.70
2019-03-26T22:43:37.803Z,2.20
2019-03-26T22:48:41.380Z,2.30
2019-03-26T22:53:44.926Z,2.62
2019-03-26T22:58:48.505Z,2.60
2019-03-26T23:03:52.185Z,2.60
2019-03-26T23:08:55.942Z,2.40
2019-03-26T23:13:59.621Z,2.60
2019-03-26T23:19:03.168Z,2.25
2019-03-26T23:24:07.326Z,2.77
2019-03-26T23:29:11.288Z,3.10
2019-03-26T23:34:15.685Z,3.52
2019-03-26T23:39:19.331Z,3.90
2019-03-26T23:44:26.000Z,3.60
2019-03-26T23:49:29.104Z,3.22
2019-03-26T23:54:32.700Z,2.87
2019-03-26T23:59:36.236Z,3.52
